sensor_id;sensor_type;location;lat;lon;timestamp;P1;durP1;ratioP1;P2;durP2;ratioP2
47089;SDS011;32840;52.516;13.294;2023-09-19T00:01:42;6.53;;;2.38;;
47089;SDS011;32840;52.516;13.294;2023-09-19T00:04:33;8.23;;;2.50;;
47089;SDS011;32840;52.516;13.294;2023-09-19T00:07:18;5.93;;;2.22;;
47089;SDS011;32840;52.516;13.294;2023-09-19T00:10:03;5.47;;;2.13;;
47089;SDS011;32840;52.516;13.294;2023-09-19T00:12:48;3.65;;;1.90;;
47089;SDS011;32840;52.516;13.294;2023-09-19T00:15:37;4.50;;;2.03;;
47089;SDS011;32840;52.516;13.294;2023-09-19T00:18:27;5.70;;;2.42;;
47089;SDS011;32840;52.516;13.294;2023-09-19T00:21:16;4.43;;;2.03;;
47089;SDS011;32840;52.516;13.294;2023-09-19T00:24:04;4.45;;;2.28;;
47089;SDS011;32840;52.516;13.294;2023-09-19T00:26:50;4.90;;;1.90;;
47089;SDS011;32840;52.516;13.294;2023-09-19T00:29:35;7.85;;;2.38;;
47089;SDS011;32840;52.516;13.294;2023-09-19T00:32:20;6.43;;;2.03;;
47089;SDS011;32840;52.516;13.294;2023-09-19T00:35:05;4.45;;;2.10;;
47089;SDS011;32840;52.516;13.294;2023-09-19T00:37:52;5.28;;;2.10;;
47089;SDS011;32840;52.516;13.294;2023-09-19T00:40:38;3.75;;;2.08;;
47089;SDS011;32840;52.516;13.294;2023-09-19T00:43:22;5.30;;;2.17;;
47089;SDS011;32840;52.516;13.294;2023-09-19T00:46:08;8.52;;;2.28;;
47089;SDS011;32840;52.516;13.294;2023-09-19T00:48:53;5.18;;;1.92;;
47089;SDS011;32840;52.516;13.294;2023-09-19T00:51:38;6.28;;;2.20;;
47089;SDS011;32840;52.516;13.294;2023-09-19T00:54:26;5.45;;;2.58;;
47089;SDS011;32840;52.516;13.294;2023-09-19T00:57:13;4.40;;;2.15;;
47089;SDS011;32840;52.516;13.294;2023-09-19T00:59:59;5.28;;;1.92;;
47089;SDS011;32840;52.516;13.294;2023-09-19T01:02:50;9.20;;;2.53;;
47089;SDS011;32840;52.516;13.294;2023-09-19T01:05:35;4.18;;;1.80;;
47089;SDS011;32840;52.516;13.294;2023-09-19T01:08:20;9.75;;;2.33;;
47089;SDS011;32840;52.516;13.294;2023-09-19T01:11:11;4.22;;;1.92;;
47089;SDS011;32840;52.516;13.294;2023-09-19T01:14:01;3.60;;;2.05;;
47089;SDS011;32840;52.516;13.294;2023-09-19T01:17:03;6.45;;;2.25;;
47089;SDS011;32840;52.516;13.294;2023-09-19T01:22:52;12.07;;;2.25;;
47089;SDS011;32840;52.516;13.294;2023-09-19T01:32:18;4.70;;;2.05;;
47089;SDS011;32840;52.516;13.294;2023-09-19T01:35:09;6.57;;;2.08;;
47089;SDS011;32840;52.516;13.294;2023-09-19T01:37:57;4.07;;;1.92;;
47089;SDS011;32840;52.516;13.294;2023-09-19T01:40:42;5.05;;;1.83;;
47089;SDS011;32840;52.516;13.294;2023-09-19T01:43:38;5.53;;;2.22;;
47089;SDS011;32840;52.516;13.294;2023-09-19T01:46:32;5.85;;;2.35;;
47089;SDS011;32840;52.516;13.294;2023-09-19T01:49:32;4.00;;;2.00;;
47089;SDS011;32840;52.516;13.294;2023-09-19T01:52:24;5.30;;;1.90;;
47089;SDS011;32840;52.516;13.294;2023-09-19T01:55:14;4.20;;;1.95;;
47089;SDS011;32840;52.516;13.294;2023-09-19T02:00:58;5.95;;;2.45;;
47089;SDS011;32840;52.516;13.294;2023-09-19T02:03:45;4.85;;;2.10;;
47089;SDS011;32840;52.516;13.294;2023-09-19T02:06:32;6.60;;;2.13;;
47089;SDS011;32840;52.516;13.294;2023-09-19T02:09:18;5.57;;;2.05;;
47089;SDS011;32840;52.516;13.294;2023-09-19T02:12:03;5.82;;;2.20;;
47089;SDS011;32840;52.516;13.294;2023-09-19T02:14:48;4.07;;;1.95;;
47089;SDS011;32840;52.516;13.294;2023-09-19T02:17:33;6.78;;;2.20;;
47089;SDS011;32840;52.516;13.294;2023-09-19T02:20:19;5.60;;;1.55;;
47089;SDS011;32840;52.516;13.294;2023-09-19T02:23:05;5.45;;;2.13;;
47089;SDS011;32840;52.516;13.294;2023-09-19T02:25:53;6.93;;;2.10;;
47089;SDS011;32840;52.516;13.294;2023-09-19T02:28:39;4.15;;;2.05;;
47089;SDS011;32840;52.516;13.294;2023-09-19T02:31:24;4.68;;;1.98;;
47089;SDS011;32840;52.516;13.294;2023-09-19T02:34:09;5.65;;;2.13;;
47089;SDS011;32840;52.516;13.294;2023-09-19T02:36:54;6.93;;;1.90;;
47089;SDS011;32840;52.516;13.294;2023-09-19T02:39:40;4.18;;;2.17;;
47089;SDS011;32840;52.516;13.294;2023-09-19T02:42:24;2.88;;;1.70;;
47089;SDS011;32840;52.516;13.294;2023-09-19T02:45:09;3.47;;;1.95;;
47089;SDS011;32840;52.516;13.294;2023-09-19T02:47:55;5.78;;;2.33;;
47089;SDS011;32840;52.516;13.294;2023-09-19T02:50:40;3.33;;;2.00;;
47089;SDS011;32840;52.516;13.294;2023-09-19T02:53:25;5.25;;;1.98;;
47089;SDS011;32840;52.516;13.294;2023-09-19T02:56:10;4.20;;;1.88;;
47089;SDS011;32840;52.516;13.294;2023-09-19T02:58:58;5.95;;;1.80;;
47089;SDS011;32840;52.516;13.294;2023-09-19T03:01:44;3.53;;;1.83;;
47089;SDS011;32840;52.516;13.294;2023-09-19T03:04:32;3.42;;;1.85;;
47089;SDS011;32840;52.516;13.294;2023-09-19T03:07:17;4.75;;;1.80;;
47089;SDS011;32840;52.516;13.294;2023-09-19T03:10:02;4.32;;;2.00;;
47089;SDS011;32840;52.516;13.294;2023-09-19T03:12:48;4.45;;;1.67;;
47089;SDS011;32840;52.516;13.294;2023-09-19T03:15:33;7.53;;;2.00;;
47089;SDS011;32840;52.516;13.294;2023-09-19T03:18:18;3.33;;;1.80;;
47089;SDS011;32840;52.516;13.294;2023-09-19T03:21:03;4.32;;;1.23;;
47089;SDS011;32840;52.516;13.294;2023-09-19T03:23:48;6.80;;;1.95;;
47089;SDS011;32840;52.516;13.294;2023-09-19T03:26:33;4.88;;;2.10;;
47089;SDS011;32840;52.516;13.294;2023-09-19T03:29:18;5.00;;;1.52;;
47089;SDS011;32840;52.516;13.294;2023-09-19T03:32:03;4.05;;;1.42;;
47089;SDS011;32840;52.516;13.294;2023-09-19T03:34:48;1.98;;;1.30;;
47089;SDS011;32840;52.516;13.294;2023-09-19T03:37:33;3.75;;;1.23;;
47089;SDS011;32840;52.516;13.294;2023-09-19T03:40:18;4.20;;;1.40;;
47089;SDS011;32840;52.516;13.294;2023-09-19T03:43:05;3.80;;;1.40;;
47089;SDS011;32840;52.516;13.294;2023-09-19T03:45:50;3.47;;;1.52;;
47089;SDS011;32840;52.516;13.294;2023-09-19T03:48:35;2.65;;;1.20;;
47089;SDS011;32840;52.516;13.294;2023-09-19T03:51:21;5.68;;;1.75;;
47089;SDS011;32840;52.516;13.294;2023-09-19T03:54:06;4.50;;;1.45;;
47089;SDS011;32840;52.516;13.294;2023-09-19T03:56:52;3.22;;;1.35;;
47089;SDS011;32840;52.516;13.294;2023-09-19T03:59:37;2.40;;;1.30;;
47089;SDS011;32840;52.516;13.294;2023-09-19T04:02:22;2.10;;;1.20;;
47089;SDS011;32840;52.516;13.294;2023-09-19T04:05:08;2.90;;;1.35;;
47089;SDS011;32840;52.516;13.294;2023-09-19T04:07:53;3.42;;;1.20;;
47089;SDS011;32840;52.516;13.294;2023-09-19T04:10:38;5.50;;;1.50;;
47089;SDS011;32840;52.516;13.294;2023-09-19T04:13:23;3.38;;;1.45;;
47089;SDS011;32840;52.516;13.294;2023-09-19T04:16:08;3.53;;;1.40;;
47089;SDS011;32840;52.516;13.294;2023-09-19T04:18:53;6.07;;;1.70;;
47089;SDS011;32840;52.516;13.294;2023-09-19T04:21:38;6.38;;;1.63;;
47089;SDS011;32840;52.516;13.294;2023-09-19T04:24:23;7.22;;;3.00;;
47089;SDS011;32840;52.516;13.294;2023-09-19T04:27:09;3.67;;;1.75;;
47089;SDS011;32840;52.516;13.294;2023-09-19T04:29:53;3.70;;;1.50;;
47089;SDS011;32840;52.516;13.294;2023-09-19T04:32:43;3.40;;;1.20;;
47089;SDS011;32840;52.516;13.294;2023-09-19T04:35:30;3.42;;;1.90;;
47089;SDS011;32840;52.516;13.294;2023-09-19T04:38:16;3.88;;;1.40;;
47089;SDS011;32840;52.516;13.294;2023-09-19T04:41:02;4.28;;;1.60;;
47089;SDS011;32840;52.516;13.294;2023-09-19T04:43:47;3.80;;;1.50;;
47089;SDS011;32840;52.516;13.294;2023-09-19T04:46:37;3.05;;;1.48;;
47089;SDS011;32840;52.516;13.294;2023-09-19T04:49:22;5.25;;;1.70;;
47089;SDS011;32840;52.516;13.294;2023-09-19T04:52:07;5.38;;;1.60;;
47089;SDS011;32840;52.516;13.294;2023-09-19T04:54:52;3.90;;;1.63;;
47089;SDS011;32840;52.516;13.294;2023-09-19T04:57:37;4.35;;;1.88;;
47089;SDS011;32840;52.516;13.294;2023-09-19T05:00:23;4.85;;;1.38;;
47089;SDS011;32840;52.516;13.294;2023-09-19T05:03:08;2.63;;;1.33;;
47089;SDS011;32840;52.516;13.294;2023-09-19T05:05:53;4.30;;;1.60;;
47089;SDS011;32840;52.516;13.294;2023-09-19T05:08:38;5.57;;;1.35;;
47089;SDS011;32840;52.516;13.294;2023-09-19T05:11:23;5.22;;;1.73;;
47089;SDS011;32840;52.516;13.294;2023-09-19T05:14:08;4.43;;;1.42;;
47089;SDS011;32840;52.516;13.294;2023-09-19T05:16:53;9.93;;;2.50;;
47089;SDS011;32840;52.516;13.294;2023-09-19T05:19:38;3.58;;;1.58;;
47089;SDS011;32840;52.516;13.294;2023-09-19T05:22:24;4.45;;;1.70;;
47089;SDS011;32840;52.516;13.294;2023-09-19T05:25:11;3.33;;;1.48;;
47089;SDS011;32840;52.516;13.294;2023-09-19T05:28:00;3.60;;;1.65;;
47089;SDS011;32840;52.516;13.294;2023-09-19T05:30:47;5.43;;;1.85;;
47089;SDS011;32840;52.516;13.294;2023-09-19T05:33:33;4.70;;;1.65;;
47089;SDS011;32840;52.516;13.294;2023-09-19T05:36:18;5.03;;;1.83;;
47089;SDS011;32840;52.516;13.294;2023-09-19T05:39:03;3.97;;;1.83;;
47089;SDS011;32840;52.516;13.294;2023-09-19T05:41:48;4.65;;;1.70;;
47089;SDS011;32840;52.516;13.294;2023-09-19T05:44:33;5.90;;;1.73;;
47089;SDS011;32840;52.516;13.294;2023-09-19T05:47:18;5.28;;;1.67;;
47089;SDS011;32840;52.516;13.294;2023-09-19T05:50:04;3.45;;;1.70;;
47089;SDS011;32840;52.516;13.294;2023-09-19T05:52:53;5.72;;;2.10;;
47089;SDS011;32840;52.516;13.294;2023-09-19T05:55:40;4.85;;;1.85;;
47089;SDS011;32840;52.516;13.294;2023-09-19T05:58:25;5.05;;;2.22;;
47089;SDS011;32840;52.516;13.294;2023-09-19T06:01:10;6.30;;;2.05;;
47089;SDS011;32840;52.516;13.294;2023-09-19T06:03:55;4.95;;;1.90;;
47089;SDS011;32840;52.516;13.294;2023-09-19T06:06:43;5.88;;;1.70;;
47089;SDS011;32840;52.516;13.294;2023-09-19T06:09:28;6.68;;;1.70;;
47089;SDS011;32840;52.516;13.294;2023-09-19T06:12:16;5.07;;;1.75;;
47089;SDS011;32840;52.516;13.294;2023-09-19T06:15:01;4.85;;;1.40;;
47089;SDS011;32840;52.516;13.294;2023-09-19T06:17:46;5.40;;;2.10;;
47089;SDS011;32840;52.516;13.294;2023-09-19T06:20:32;5.88;;;2.25;;
47089;SDS011;32840;52.516;13.294;2023-09-19T06:23:17;17.83;;;2.17;;
47089;SDS011;32840;52.516;13.294;2023-09-19T06:26:04;6.30;;;2.00;;
47089;SDS011;32840;52.516;13.294;2023-09-19T06:28:51;5.25;;;1.60;;
47089;SDS011;32840;52.516;13.294;2023-09-19T06:31:38;6.18;;;2.33;;
47089;SDS011;32840;52.516;13.294;2023-09-19T06:34:23;5.45;;;1.88;;
47089;SDS011;32840;52.516;13.294;2023-09-19T06:37:12;6.40;;;2.00;;
47089;SDS011;32840;52.516;13.294;2023-09-19T06:39:57;3.83;;;1.77;;
47089;SDS011;32840;52.516;13.294;2023-09-19T06:42:42;6.72;;;2.00;;
47089;SDS011;32840;52.516;13.294;2023-09-19T06:45:30;3.58;;;2.05;;
47089;SDS011;32840;52.516;13.294;2023-09-19T06:48:16;4.82;;;2.25;;
47089;SDS011;32840;52.516;13.294;2023-09-19T06:51:01;4.47;;;1.67;;
47089;SDS011;32840;52.516;13.294;2023-09-19T06:53:49;5.22;;;2.17;;
47089;SDS011;32840;52.516;13.294;2023-09-19T06:56:34;5.63;;;2.05;;
47089;SDS011;32840;52.516;13.294;2023-09-19T06:59:19;5.22;;;2.45;;
47089;SDS011;32840;52.516;13.294;2023-09-19T07:02:04;7.13;;;2.17;;
47089;SDS011;32840;52.516;13.294;2023-09-19T07:04:50;6.55;;;2.38;;
47089;SDS011;32840;52.516;13.294;2023-09-19T07:07:35;7.10;;;1.90;;
47089;SDS011;32840;52.516;13.294;2023-09-19T07:10:19;6.38;;;2.00;;
47089;SDS011;32840;52.516;13.294;2023-09-19T07:13:07;4.68;;;2.10;;
47089;SDS011;32840;52.516;13.294;2023-09-19T07:15:54;5.50;;;2.00;;
47089;SDS011;32840;52.516;13.294;2023-09-19T07:18:41;4.90;;;1.77;;
47089;SDS011;32840;52.516;13.294;2023-09-19T07:21:28;9.60;;;1.98;;
47089;SDS011;32840;52.516;13.294;2023-09-19T07:24:13;5.60;;;2.38;;
47089;SDS011;32840;52.516;13.294;2023-09-19T07:26:58;56.08;;;4.97;;
47089;SDS011;32840;52.516;13.294;2023-09-19T07:29:44;11.93;;;2.88;;
47089;SDS011;32840;52.516;13.294;2023-09-19T07:32:29;9.95;;;2.35;;
47089;SDS011;32840;52.516;13.294;2023-09-19T07:35:14;5.32;;;2.08;;
47089;SDS011;32840;52.516;13.294;2023-09-19T07:37:59;5.55;;;2.22;;
47089;SDS011;32840;52.516;13.294;2023-09-19T07:40:45;9.80;;;3.70;;
47089;SDS011;32840;52.516;13.294;2023-09-19T07:43:30;9.18;;;3.40;;
47089;SDS011;32840;52.516;13.294;2023-09-19T07:46:15;5.22;;;2.63;;
47089;SDS011;32840;52.516;13.294;2023-09-19T07:49:02;9.07;;;3.33;;
47089;SDS011;32840;52.516;13.294;2023-09-19T07:51:46;9.48;;;3.17;;
47089;SDS011;32840;52.516;13.294;2023-09-19T07:54:31;5.90;;;2.83;;
47089;SDS011;32840;52.516;13.294;2023-09-19T07:57:19;5.88;;;2.42;;
47089;SDS011;32840;52.516;13.294;2023-09-19T08:00:04;7.38;;;3.30;;
47089;SDS011;32840;52.516;13.294;2023-09-19T08:02:51;6.40;;;2.67;;
47089;SDS011;32840;52.516;13.294;2023-09-19T08:05:36;6.45;;;2.38;;
47089;SDS011;32840;52.516;13.294;2023-09-19T08:08:21;10.43;;;3.10;;
47089;SDS011;32840;52.516;13.294;2023-09-19T08:11:06;5.43;;;2.60;;
47089;SDS011;32840;52.516;13.294;2023-09-19T08:13:58;4.38;;;2.28;;
47089;SDS011;32840;52.516;13.294;2023-09-19T08:16:44;7.80;;;3.47;;
47089;SDS011;32840;52.516;13.294;2023-09-19T08:19:29;7.10;;;2.40;;
47089;SDS011;32840;52.516;13.294;2023-09-19T08:22:16;5.10;;;2.22;;
47089;SDS011;32840;52.516;13.294;2023-09-19T08:25:01;6.00;;;2.70;;
47089;SDS011;32840;52.516;13.294;2023-09-19T08:27:50;6.95;;;2.65;;
47089;SDS011;32840;52.516;13.294;2023-09-19T08:30:35;6.03;;;2.33;;
47089;SDS011;32840;52.516;13.294;2023-09-19T08:33:22;5.43;;;2.63;;
47089;SDS011;32840;52.516;13.294;2023-09-19T08:36:07;9.52;;;2.90;;
47089;SDS011;32840;52.516;13.294;2023-09-19T08:38:54;10.40;;;2.83;;
47089;SDS011;32840;52.516;13.294;2023-09-19T08:41:39;8.98;;;2.72;;
47089;SDS011;32840;52.516;13.294;2023-09-19T08:44:24;6.05;;;2.20;;
47089;SDS011;32840;52.516;13.294;2023-09-19T08:47:10;5.28;;;2.63;;
47089;SDS011;32840;52.516;13.294;2023-09-19T08:50:19;7.28;;;2.67;;
47089;SDS011;32840;52.516;13.294;2023-09-19T08:53:27;7.28;;;3.03;;
47089;SDS011;32840;52.516;13.294;2023-09-19T08:56:12;9.35;;;5.15;;
47089;SDS011;32840;52.516;13.294;2023-09-19T08:59:05;6.53;;;3.42;;
47089;SDS011;32840;52.516;13.294;2023-09-19T09:01:56;6.78;;;2.83;;
47089;SDS011;32840;52.516;13.294;2023-09-19T09:04:43;5.10;;;2.65;;
47089;SDS011;32840;52.516;13.294;2023-09-19T09:07:29;8.75;;;4.60;;
47089;SDS011;32840;52.516;13.294;2023-09-19T09:10:14;8.25;;;3.08;;
47089;SDS011;32840;52.516;13.294;2023-09-19T09:12:59;8.05;;;2.88;;
47089;SDS011;32840;52.516;13.294;2023-09-19T09:15:45;7.18;;;2.90;;
47089;SDS011;32840;52.516;13.294;2023-09-19T09:18:30;8.45;;;3.08;;
47089;SDS011;32840;52.516;13.294;2023-09-19T09:21:14;5.50;;;2.55;;
47089;SDS011;32840;52.516;13.294;2023-09-19T09:24:21;9.68;;;3.05;;
47089;SDS011;32840;52.516;13.294;2023-09-19T09:27:14;4.50;;;2.60;;
47089;SDS011;32840;52.516;13.294;2023-09-19T09:29:59;8.50;;;2.88;;
47089;SDS011;32840;52.516;13.294;2023-09-19T09:32:44;7.35;;;2.70;;
47089;SDS011;32840;52.516;13.294;2023-09-19T09:35:29;10.15;;;3.63;;
47089;SDS011;32840;52.516;13.294;2023-09-19T09:38:14;11.88;;;5.35;;
47089;SDS011;32840;52.516;13.294;2023-09-19T09:41:00;7.28;;;2.60;;
47089;SDS011;32840;52.516;13.294;2023-09-19T09:43:51;6.55;;;3.17;;
47089;SDS011;32840;52.516;13.294;2023-09-19T09:46:36;8.57;;;3.10;;
47089;SDS011;32840;52.516;13.294;2023-09-19T09:49:36;9.37;;;2.73;;
47089;SDS011;32840;52.516;13.294;2023-09-19T09:52:22;9.07;;;3.10;;
47089;SDS011;32840;52.516;13.294;2023-09-19T09:55:08;10.18;;;3.33;;
47089;SDS011;32840;52.516;13.294;2023-09-19T09:58:15;8.15;;;4.30;;
47089;SDS011;32840;52.516;13.294;2023-09-19T10:01:05;7.28;;;3.28;;
47089;SDS011;32840;52.516;13.294;2023-09-19T10:03:59;9.25;;;2.92;;
47089;SDS011;32840;52.516;13.294;2023-09-19T10:06:44;7.32;;;3.38;;
47089;SDS011;32840;52.516;13.294;2023-09-19T10:09:46;7.65;;;3.00;;
47089;SDS011;32840;52.516;13.294;2023-09-19T10:12:37;10.68;;;4.05;;
47089;SDS011;32840;52.516;13.294;2023-09-19T10:15:26;10.90;;;5.63;;
47089;SDS011;32840;52.516;13.294;2023-09-19T10:18:14;11.98;;;7.15;;
47089;SDS011;32840;52.516;13.294;2023-09-19T10:21:02;12.20;;;6.60;;
47089;SDS011;32840;52.516;13.294;2023-09-19T10:23:49;9.40;;;4.82;;
47089;SDS011;32840;52.516;13.294;2023-09-19T10:26:36;9.13;;;3.92;;
47089;SDS011;32840;52.516;13.294;2023-09-19T10:29:24;27.50;;;5.30;;
47089;SDS011;32840;52.516;13.294;2023-09-19T10:32:12;6.53;;;2.92;;
47089;SDS011;32840;52.516;13.294;2023-09-19T10:35:04;9.98;;;4.13;;
47089;SDS011;32840;52.516;13.294;2023-09-19T10:37:50;9.70;;;3.65;;
47089;SDS011;32840;52.516;13.294;2023-09-19T10:40:39;10.73;;;4.22;;
47089;SDS011;32840;52.516;13.294;2023-09-19T10:43:31;10.27;;;4.00;;
47089;SDS011;32840;52.516;13.294;2023-09-19T10:46:16;11.60;;;5.07;;
47089;SDS011;32840;52.516;13.294;2023-09-19T10:49:01;13.20;;;5.07;;
47089;SDS011;32840;52.516;13.294;2023-09-19T10:51:47;10.45;;;5.10;;
47089;SDS011;32840;52.516;13.294;2023-09-19T10:54:35;11.70;;;4.95;;
47089;SDS011;32840;52.516;13.294;2023-09-19T10:57:24;9.45;;;3.75;;
47089;SDS011;32840;52.516;13.294;2023-09-19T11:00:12;9.43;;;4.95;;
47089;SDS011;32840;52.516;13.294;2023-09-19T11:06:11;13.50;;;4.78;;
47089;SDS011;32840;52.516;13.294;2023-09-19T11:09:01;9.45;;;4.45;;
47089;SDS011;32840;52.516;13.294;2023-09-19T11:11:59;10.05;;;4.72;;
47089;SDS011;32840;52.516;13.294;2023-09-19T11:14:45;10.35;;;3.60;;
47089;SDS011;32840;52.516;13.294;2023-09-19T11:17:30;7.97;;;2.63;;
47089;SDS011;32840;52.516;13.294;2023-09-19T11:20:22;10.20;;;5.15;;
47089;SDS011;32840;52.516;13.294;2023-09-19T11:23:20;8.18;;;3.80;;
47089;SDS011;32840;52.516;13.294;2023-09-19T11:26:10;11.30;;;3.05;;
47089;SDS011;32840;52.516;13.294;2023-09-19T11:29:28;8.80;;;3.42;;
47089;SDS011;32840;52.516;13.294;2023-09-19T11:32:14;14.00;;;4.55;;
47089;SDS011;32840;52.516;13.294;2023-09-19T11:35:06;13.80;;;4.97;;
47089;SDS011;32840;52.516;13.294;2023-09-19T11:40:37;7.82;;;3.50;;
47089;SDS011;32840;52.516;13.294;2023-09-19T11:43:29;10.75;;;3.25;;
47089;SDS011;32840;52.516;13.294;2023-09-19T11:46:15;12.73;;;3.05;;
47089;SDS011;32840;52.516;13.294;2023-09-19T11:51:58;8.85;;;3.67;;
47089;SDS011;32840;52.516;13.294;2023-09-19T11:54:53;10.13;;;3.25;;
47089;SDS011;32840;52.516;13.294;2023-09-19T11:57:41;9.82;;;2.38;;
47089;SDS011;32840;52.516;13.294;2023-09-19T12:00:26;6.95;;;2.80;;
47089;SDS011;32840;52.516;13.294;2023-09-19T12:03:13;7.13;;;2.58;;
47089;SDS011;32840;52.516;13.294;2023-09-19T12:06:05;7.40;;;2.88;;
47089;SDS011;32840;52.516;13.294;2023-09-19T12:08:57;8.13;;;2.70;;
47089;SDS011;32840;52.516;13.294;2023-09-19T12:11:43;12.48;;;3.53;;
47089;SDS011;32840;52.516;13.294;2023-09-19T12:14:28;8.38;;;2.83;;
47089;SDS011;32840;52.516;13.294;2023-09-19T12:17:13;10.48;;;2.90;;
47089;SDS011;32840;52.516;13.294;2023-09-19T12:19:59;8.75;;;3.20;;
47089;SDS011;32840;52.516;13.294;2023-09-19T12:22:45;5.75;;;2.67;;
47089;SDS011;32840;52.516;13.294;2023-09-19T12:25:41;7.70;;;2.65;;
47089;SDS011;32840;52.516;13.294;2023-09-19T12:28:30;4.95;;;2.80;;
47089;SDS011;32840;52.516;13.294;2023-09-19T12:31:19;5.90;;;2.22;;
47089;SDS011;32840;52.516;13.294;2023-09-19T12:34:07;6.03;;;2.10;;
47089;SDS011;32840;52.516;13.294;2023-09-19T12:37:05;17.00;;;7.22;;
47089;SDS011;32840;52.516;13.294;2023-09-19T12:40:05;7.38;;;3.30;;
47089;SDS011;32840;52.516;13.294;2023-09-19T12:43:06;6.97;;;2.55;;
47089;SDS011;32840;52.516;13.294;2023-09-19T12:45:53;14.52;;;3.13;;
47089;SDS011;32840;52.516;13.294;2023-09-19T12:48:38;7.55;;;2.30;;
47089;SDS011;32840;52.516;13.294;2023-09-19T12:51:34;9.87;;;4.00;;
47089;SDS011;32840;52.516;13.294;2023-09-19T12:54:19;4.22;;;1.60;;
47089;SDS011;32840;52.516;13.294;2023-09-19T12:57:06;7.35;;;2.20;;
47089;SDS011;32840;52.516;13.294;2023-09-19T12:59:52;6.35;;;2.40;;
47089;SDS011;32840;52.516;13.294;2023-09-19T13:02:37;4.22;;;2.10;;
47089;SDS011;32840;52.516;13.294;2023-09-19T13:05:46;7.32;;;2.30;;
47089;SDS011;32840;52.516;13.294;2023-09-19T13:08:37;9.50;;;3.83;;
47089;SDS011;32840;52.516;13.294;2023-09-19T13:11:22;6.60;;;2.25;;
47089;SDS011;32840;52.516;13.294;2023-09-19T13:14:23;7.28;;;2.28;;
47089;SDS011;32840;52.516;13.294;2023-09-19T13:17:11;9.68;;;4.75;;
47089;SDS011;32840;52.516;13.294;2023-09-19T13:20:03;9.30;;;2.85;;
47089;SDS011;32840;52.516;13.294;2023-09-19T13:22:51;9.82;;;3.03;;
47089;SDS011;32840;52.516;13.294;2023-09-19T13:25:39;7.25;;;1.90;;
47089;SDS011;32840;52.516;13.294;2023-09-19T13:28:24;7.05;;;1.95;;
47089;SDS011;32840;52.516;13.294;2023-09-19T13:31:09;10.43;;;2.03;;
47089;SDS011;32840;52.516;13.294;2023-09-19T13:33:58;9.57;;;3.22;;
47089;SDS011;32840;52.516;13.294;2023-09-19T13:36:43;6.90;;;1.75;;
47089;SDS011;32840;52.516;13.294;2023-09-19T13:39:28;6.75;;;2.00;;
47089;SDS011;32840;52.516;13.294;2023-09-19T13:42:13;5.38;;;1.95;;
47089;SDS011;32840;52.516;13.294;2023-09-19T13:45:00;7.40;;;2.22;;
47089;SDS011;32840;52.516;13.294;2023-09-19T13:47:45;7.75;;;1.92;;
47089;SDS011;32840;52.516;13.294;2023-09-19T13:50:30;5.38;;;2.00;;
47089;SDS011;32840;52.516;13.294;2023-09-19T13:53:15;5.65;;;1.90;;
47089;SDS011;32840;52.516;13.294;2023-09-19T13:56:00;6.47;;;2.00;;
47089;SDS011;32840;52.516;13.294;2023-09-19T13:58:45;6.03;;;2.83;;
47089;SDS011;32840;52.516;13.294;2023-09-19T14:01:30;7.20;;;2.47;;
47089;SDS011;32840;52.516;13.294;2023-09-19T14:04:15;11.57;;;2.92;;
47089;SDS011;32840;52.516;13.294;2023-09-19T14:07:01;8.93;;;2.28;;
47089;SDS011;32840;52.516;13.294;2023-09-19T14:09:48;6.80;;;2.30;;
47089;SDS011;32840;52.516;13.294;2023-09-19T14:12:33;13.52;;;2.65;;
47089;SDS011;32840;52.516;13.294;2023-09-19T14:15:18;15.88;;;6.57;;
47089;SDS011;32840;52.516;13.294;2023-09-19T14:18:04;3.40;;;1.90;;
47089;SDS011;32840;52.516;13.294;2023-09-19T14:20:49;6.25;;;2.50;;
47089;SDS011;32840;52.516;13.294;2023-09-19T14:23:40;6.85;;;1.92;;
47089;SDS011;32840;52.516;13.294;2023-09-19T14:26:29;6.05;;;1.92;;
47089;SDS011;32840;52.516;13.294;2023-09-19T14:29:14;5.65;;;1.90;;
47089;SDS011;32840;52.516;13.294;2023-09-19T14:32:02;8.65;;;2.78;;
47089;SDS011;32840;52.516;13.294;2023-09-19T14:34:50;10.98;;;2.40;;
47089;SDS011;32840;52.516;13.294;2023-09-19T14:37:36;10.82;;;1.90;;
47089;SDS011;32840;52.516;13.294;2023-09-19T14:40:22;7.30;;;1.88;;
47089;SDS011;32840;52.516;13.294;2023-09-19T14:43:07;7.40;;;2.22;;
47089;SDS011;32840;52.516;13.294;2023-09-19T14:45:52;9.07;;;2.50;;
47089;SDS011;32840;52.516;13.294;2023-09-19T14:48:37;7.28;;;2.60;;
47089;SDS011;32840;52.516;13.294;2023-09-19T14:51:30;7.82;;;2.63;;
47089;SDS011;32840;52.516;13.294;2023-09-19T14:54:15;9.55;;;2.65;;
47089;SDS011;32840;52.516;13.294;2023-09-19T14:57:03;5.85;;;2.42;;
47089;SDS011;32840;52.516;13.294;2023-09-19T14:59:48;4.78;;;1.98;;
47089;SDS011;32840;52.516;13.294;2023-09-19T15:02:33;4.85;;;2.35;;
47089;SDS011;32840;52.516;13.294;2023-09-19T15:05:18;8.35;;;2.10;;
47089;SDS011;32840;52.516;13.294;2023-09-19T15:08:03;5.72;;;1.73;;
47089;SDS011;32840;52.516;13.294;2023-09-19T15:10:49;7.50;;;3.53;;
47089;SDS011;32840;52.516;13.294;2023-09-19T15:13:37;6.70;;;2.53;;
47089;SDS011;32840;52.516;13.294;2023-09-19T15:16:22;6.65;;;2.00;;
47089;SDS011;32840;52.516;13.294;2023-09-19T15:19:07;5.22;;;2.10;;
47089;SDS011;32840;52.516;13.294;2023-09-19T15:21:51;6.35;;;2.25;;
47089;SDS011;32840;52.516;13.294;2023-09-19T15:24:36;6.38;;;2.40;;
47089;SDS011;32840;52.516;13.294;2023-09-19T15:27:21;5.57;;;2.50;;
47089;SDS011;32840;52.516;13.294;2023-09-19T15:30:06;4.68;;;2.10;;
47089;SDS011;32840;52.516;13.294;2023-09-19T15:32:52;4.72;;;2.58;;
47089;SDS011;32840;52.516;13.294;2023-09-19T15:36:14;6.10;;;2.35;;
47089;SDS011;32840;52.516;13.294;2023-09-19T15:39:03;10.55;;;3.08;;
47089;SDS011;32840;52.516;13.294;2023-09-19T15:41:55;7.75;;;2.58;;
47089;SDS011;32840;52.516;13.294;2023-09-19T15:44:40;8.15;;;2.80;;
47089;SDS011;32840;52.516;13.294;2023-09-19T15:47:26;6.85;;;2.10;;
47089;SDS011;32840;52.516;13.294;2023-09-19T15:50:11;5.40;;;1.85;;
47089;SDS011;32840;52.516;13.294;2023-09-19T15:52:59;5.07;;;1.95;;
47089;SDS011;32840;52.516;13.294;2023-09-19T15:55:44;6.30;;;2.40;;
47089;SDS011;32840;52.516;13.294;2023-09-19T15:58:29;5.60;;;2.33;;
47089;SDS011;32840;52.516;13.294;2023-09-19T16:01:15;7.32;;;2.78;;
47089;SDS011;32840;52.516;13.294;2023-09-19T16:04:01;6.18;;;2.40;;
47089;SDS011;32840;52.516;13.294;2023-09-19T16:06:47;5.18;;;2.33;;
47089;SDS011;32840;52.516;13.294;2023-09-19T16:09:31;5.45;;;2.08;;
47089;SDS011;32840;52.516;13.294;2023-09-19T16:12:17;9.43;;;2.88;;
47089;SDS011;32840;52.516;13.294;2023-09-19T16:15:02;6.30;;;2.47;;
47089;SDS011;32840;52.516;13.294;2023-09-19T16:17:47;12.40;;;2.25;;
47089;SDS011;32840;52.516;13.294;2023-09-19T16:20:32;7.70;;;2.03;;
47089;SDS011;32840;52.516;13.294;2023-09-19T16:23:18;18.98;;;3.60;;
47089;SDS011;32840;52.516;13.294;2023-09-19T16:26:04;9.57;;;2.22;;
47089;SDS011;32840;52.516;13.294;2023-09-19T16:28:51;7.38;;;2.25;;
47089;SDS011;32840;52.516;13.294;2023-09-19T16:31:37;7.60;;;2.47;;
47089;SDS011;32840;52.516;13.294;2023-09-19T16:34:22;4.38;;;2.00;;
47089;SDS011;32840;52.516;13.294;2023-09-19T16:37:07;6.93;;;2.40;;
47089;SDS011;32840;52.516;13.294;2023-09-19T16:39:52;4.78;;;2.05;;
47089;SDS011;32840;52.516;13.294;2023-09-19T16:42:37;3.70;;;2.05;;
47089;SDS011;32840;52.516;13.294;2023-09-19T16:45:23;7.90;;;2.70;;
47089;SDS011;32840;52.516;13.294;2023-09-19T16:48:08;5.25;;;2.67;;
47089;SDS011;32840;52.516;13.294;2023-09-19T16:50:53;7.70;;;2.38;;
47089;SDS011;32840;52.516;13.294;2023-09-19T16:53:39;5.07;;;2.67;;